RYR83ZV LPPT-LIPZ
Flight info
| Callsign | RYR83ZV |
|---|---|
| Flight time | 2h 25m |
| Altitude | 36000 |
| Route | ORVED DCT UREDI DCT PONEN DCT SEROX DCT VILAR/N0452F370 DCT KARES/N0451F360 DCT BISES DCT BCN DCT SALON DCT AGENA DCT BODEQ DCT LUMAS DCT NEVIX DCT ODIXU DCT ADITA DCT RAPED DCT PIGOS DCT EKSID DCT NOSTA DCT EGHIN DCT DORAV DCT LOGDI/N0450F370 DCT LURUT DCT TODNO DCT BOA DCT SUKOM Q125 NIMUM Z43 OTGIG |
| Aircraft | B38M/M-SDE1FGHILORVWXY/HB1 |
Departure
| Time | 2026-05-06 14:06 |
|---|---|
| Airport | Lisbon Humberto Delgado Airport (LPPT) |
Arrival
| Time | 2026-05-06 16:31 |
|---|---|
| Airport | Venice Marco Polo Airport (LIPZ) |
| Time | Latitude | Longitude | Altitude | Speed | Heading |
|---|---|---|---|---|---|
| 2026-05-06 13:19 | 38.76478 | -9.13639 | 352 ft | 0 kts | 168° |
| 2026-05-06 13:55 | 38.76482 | -9.13640 | 350 ft | 3 kts | 168° |
| 2026-05-06 13:55 | 38.76499 | -9.13645 | 360 ft | 1 kts | 168° |
| 2026-05-06 13:56 | 38.76500 | -9.13645 | 360 ft | 0 kts | 168° |
| 2026-05-06 13:56 | 38.76503 | -9.13646 | 350 ft | 3 kts | 168° |
| 2026-05-06 13:56 | 38.76521 | -9.13651 | 355 ft | 3 kts | 168° |
| 2026-05-06 13:56 | 38.76537 | -9.13655 | 354 ft | 3 kts | 168° |
| 2026-05-06 13:57 | 38.76551 | -9.13658 | 354 ft | 2 kts | 170° |
| 2026-05-06 13:57 | 38.76568 | -9.13653 | 356 ft | 2 kts | 231° |
| 2026-05-06 13:57 | 38.76572 | -9.13642 | 359 ft | 0 kts | 259° |
| 2026-05-06 14:01 | 38.76571 | -9.13649 | 359 ft | 2 kts | 259° |
| 2026-05-06 14:01 | 38.76571 | -9.13651 | 359 ft | 0 kts | 259° |
| 2026-05-06 14:02 | 38.76572 | -9.13653 | 355 ft | 1 kts | 282° |
| 2026-05-06 14:02 | 38.76591 | -9.13664 | 354 ft | 8 kts | 337° |
| 2026-05-06 14:02 | 38.76613 | -9.13736 | 348 ft | 11 kts | 261° |
| 2026-05-06 14:03 | 38.76596 | -9.13841 | 351 ft | 13 kts | 258° |
| 2026-05-06 14:03 | 38.76579 | -9.13947 | 351 ft | 11 kts | 257° |
| 2026-05-06 14:03 | 38.76540 | -9.14039 | 349 ft | 12 kts | 229° |
| 2026-05-06 14:03 | 38.76497 | -9.14140 | 356 ft | 11 kts | 264° |
| 2026-05-06 14:04 | 38.76523 | -9.14259 | 343 ft | 17 kts | 292° |
| 2026-05-06 14:04 | 38.76570 | -9.14382 | 333 ft | 15 kts | 311° |
| 2026-05-06 14:04 | 38.76647 | -9.14387 | 339 ft | 9 kts | 22° |
| 2026-05-06 14:04 | 38.76650 | -9.14386 | 339 ft | 0 kts | 22° |
| 2026-05-06 14:05 | 38.76663 | -9.14379 | 338 ft | 14 kts | 22° |
| 2026-05-06 14:05 | 38.76999 | -9.14200 | 355 ft | 89 kts | 22° |
| 2026-05-06 14:05 | 38.77773 | -9.13787 | 367 ft | 150 kts | 23° |
| 2026-05-06 14:06 | 38.78831 | -9.13178 | 729 ft | 173 kts | 21° |
| 2026-05-06 14:06 | 38.79954 | -9.12519 | 1513 ft | 181 kts | 20° |
| 2026-05-06 14:06 | 38.81083 | -9.11801 | 2461 ft | 181 kts | 20° |
| 2026-05-06 14:06 | 38.82263 | -9.11059 | 3081 ft | 202 kts | 23° |
| 2026-05-06 14:07 | 38.83623 | -9.10183 | 3511 ft | 231 kts | 23° |
| 2026-05-06 14:07 | 38.85076 | -9.09255 | 4501 ft | 236 kts | 24° |
| 2026-05-06 14:07 | 38.86591 | -9.08332 | 5416 ft | 247 kts | 24° |
| 2026-05-06 14:07 | 38.88203 | -9.07418 | 6205 ft | 259 kts | 22° |
| 2026-05-06 14:08 | 38.89881 | -9.06540 | 7188 ft | 260 kts | 20° |
| 2026-05-06 14:08 | 38.91595 | -9.05682 | 8051 ft | 269 kts | 21° |
| 2026-05-06 14:08 | 38.93342 | -9.04708 | 8866 ft | 279 kts | 28° |
| 2026-05-06 14:08 | 38.94744 | -9.02982 | 9802 ft | 284 kts | 57° |
| 2026-05-06 14:09 | 38.95588 | -9.00646 | 10493 ft | 297 kts | 66° |
| 2026-05-06 14:09 | 38.96490 | -8.98158 | 10922 ft | 317 kts | 63° |
| 2026-05-06 14:09 | 38.97462 | -8.95523 | 11315 ft | 337 kts | 64° |
| 2026-05-06 14:09 | 38.98482 | -8.92738 | 11837 ft | 351 kts | 64° |
| 2026-05-06 14:10 | 38.99515 | -8.89896 | 12493 ft | 359 kts | 64° |
| 2026-05-06 14:10 | 39.00571 | -8.86970 | 13346 ft | 363 kts | 64° |
| 2026-05-06 14:10 | 39.01641 | -8.83999 | 14039 ft | 371 kts | 64° |
| 2026-05-06 14:10 | 39.02732 | -8.80968 | 14788 ft | 373 kts | 65° |
| 2026-05-06 14:11 | 39.03821 | -8.77929 | 15547 ft | 377 kts | 64° |
| 2026-05-06 14:11 | 39.04933 | -8.74831 | 16151 ft | 385 kts | 64° |
| 2026-05-06 14:11 | 39.06056 | -8.71698 | 16952 ft | 387 kts | 65° |
| 2026-05-06 14:11 | 39.07189 | -8.68532 | 17633 ft | 391 kts | 65° |
| 2026-05-06 14:12 | 39.08326 | -8.65352 | 18334 ft | 395 kts | 65° |
| 2026-05-06 14:12 | 39.09480 | -8.62122 | 18873 ft | 399 kts | 65° |
| 2026-05-06 14:12 | 39.10643 | -8.58860 | 19491 ft | 403 kts | 65° |
| 2026-05-06 14:12 | 39.11815 | -8.55572 | 20089 ft | 406 kts | 65° |
| 2026-05-06 14:13 | 39.12997 | -8.52248 | 20693 ft | 409 kts | 65° |
| 2026-05-06 14:13 | 39.14190 | -8.48892 | 21272 ft | 413 kts | 65° |
| 2026-05-06 14:13 | 39.15390 | -8.45513 | 21854 ft | 416 kts | 65° |
| 2026-05-06 14:13 | 39.16598 | -8.42108 | 22414 ft | 420 kts | 65° |
| 2026-05-06 14:14 | 39.17818 | -8.38664 | 22982 ft | 423 kts | 65° |
| 2026-05-06 14:14 | 39.19038 | -8.35216 | 23525 ft | 427 kts | 65° |
| 2026-05-06 14:14 | 39.20276 | -8.31712 | 23974 ft | 430 kts | 65° |
| 2026-05-06 14:14 | 39.21520 | -8.28187 | 24432 ft | 433 kts | 65° |
| 2026-05-06 14:15 | 39.22772 | -8.24635 | 24882 ft | 437 kts | 65° |
| 2026-05-06 14:15 | 39.24029 | -8.21064 | 25320 ft | 440 kts | 65° |
| 2026-05-06 14:15 | 39.25297 | -8.17460 | 25744 ft | 443 kts | 65° |
| 2026-05-06 14:15 | 39.26574 | -8.13822 | 26169 ft | 446 kts | 65° |
| 2026-05-06 14:16 | 39.27857 | -8.10166 | 26587 ft | 449 kts | 65° |
| 2026-05-06 14:16 | 39.29140 | -8.06502 | 27007 ft | 451 kts | 65° |
| 2026-05-06 14:16 | 39.30437 | -8.02796 | 27419 ft | 454 kts | 65° |
| 2026-05-06 14:16 | 39.31740 | -7.99066 | 27828 ft | 457 kts | 65° |
| 2026-05-06 14:17 | 39.33032 | -7.95363 | 28228 ft | 460 kts | 65° |
| 2026-05-06 14:17 | 39.34348 | -7.91586 | 28607 ft | 462 kts | 66° |
| 2026-05-06 14:17 | 39.35671 | -7.87784 | 28992 ft | 465 kts | 66° |
| 2026-05-06 14:17 | 39.37001 | -7.83959 | 29367 ft | 468 kts | 66° |
| 2026-05-06 14:18 | 39.38337 | -7.80110 | 29735 ft | 471 kts | 66° |
| 2026-05-06 14:18 | 39.39674 | -7.76253 | 30077 ft | 473 kts | 66° |
| 2026-05-06 14:18 | 39.41023 | -7.72357 | 30374 ft | 476 kts | 66° |
| 2026-05-06 14:18 | 39.42378 | -7.68437 | 30665 ft | 479 kts | 65° |
| 2026-05-06 14:19 | 39.43736 | -7.64503 | 30951 ft | 481 kts | 65° |
| 2026-05-06 14:19 | 39.45103 | -7.60538 | 31245 ft | 484 kts | 65° |
| 2026-05-06 14:19 | 39.46476 | -7.56549 | 31525 ft | 486 kts | 65° |
| 2026-05-06 14:19 | 39.47854 | -7.52541 | 31845 ft | 488 kts | 65° |
| 2026-05-06 14:20 | 39.49225 | -7.48546 | 32225 ft | 488 kts | 65° |
| 2026-05-06 14:20 | 39.50600 | -7.44532 | 32613 ft | 488 kts | 65° |
| 2026-05-06 14:20 | 39.51974 | -7.40517 | 32987 ft | 488 kts | 65° |
| 2026-05-06 14:20 | 39.53346 | -7.36499 | 33371 ft | 488 kts | 65° |
| 2026-05-06 14:21 | 39.54721 | -7.32472 | 33743 ft | 488 kts | 65° |
| 2026-05-06 14:21 | 39.56088 | -7.28461 | 34088 ft | 488 kts | 65° |
| 2026-05-06 14:21 | 39.57456 | -7.24440 | 34384 ft | 488 kts | 65° |
| 2026-05-06 14:21 | 39.58824 | -7.20413 | 34698 ft | 488 kts | 65° |
| 2026-05-06 14:22 | 39.60188 | -7.16395 | 35020 ft | 488 kts | 65° |
| 2026-05-06 14:22 | 39.61551 | -7.12373 | 35301 ft | 488 kts | 65° |
| 2026-05-06 14:22 | 39.62917 | -7.08338 | 35600 ft | 489 kts | 65° |
| 2026-05-06 14:22 | 39.64282 | -7.04298 | 35870 ft | 489 kts | 65° |
| 2026-05-06 14:23 | 39.67017 | -6.96193 | 35914 ft | 489 kts | 65° |
| 2026-05-06 14:23 | 39.69728 | -6.88133 | 35926 ft | 489 kts | 65° |
| 2026-05-06 14:24 | 39.72441 | -6.80042 | 35926 ft | 488 kts | 65° |
| 2026-05-06 14:24 | 39.75150 | -6.71946 | 35923 ft | 489 kts | 66° |
| 2026-05-06 14:25 | 39.77853 | -6.63841 | 35918 ft | 489 kts | 66° |
| 2026-05-06 14:25 | 39.80545 | -6.55747 | 35924 ft | 489 kts | 66° |
| 2026-05-06 14:26 | 39.83237 | -6.47630 | 35914 ft | 489 kts | 66° |
| 2026-05-06 14:26 | 39.85893 | -6.39488 | 35923 ft | 489 kts | 69° |
| 2026-05-06 14:27 | 39.88227 | -6.31179 | 35916 ft | 489 kts | 69° |
| 2026-05-06 14:27 | 39.90587 | -6.22904 | 35915 ft | 488 kts | 69° |
| 2026-05-06 14:28 | 39.92937 | -6.14649 | 35909 ft | 489 kts | 69° |
| 2026-05-06 14:28 | 39.95308 | -6.06299 | 35910 ft | 489 kts | 69° |
| 2026-05-06 14:29 | 39.97660 | -5.97988 | 35914 ft | 489 kts | 69° |
| 2026-05-06 14:29 | 39.99992 | -5.89723 | 35915 ft | 489 kts | 69° |
| 2026-05-06 14:30 | 40.02335 | -5.81388 | 35916 ft | 489 kts | 69° |
| 2026-05-06 14:30 | 40.04676 | -5.73039 | 35920 ft | 489 kts | 70° |
| 2026-05-06 14:31 | 40.07006 | -5.64697 | 35916 ft | 490 kts | 70° |
| 2026-05-06 14:31 | 40.09336 | -5.56332 | 35924 ft | 491 kts | 70° |
| 2026-05-06 14:32 | 40.11663 | -5.47945 | 35926 ft | 490 kts | 70° |
| 2026-05-06 14:32 | 40.13982 | -5.39564 | 35931 ft | 490 kts | 70° |
| 2026-05-06 14:33 | 40.16284 | -5.31215 | 35927 ft | 489 kts | 70° |
| 2026-05-06 14:33 | 40.18590 | -5.22828 | 35924 ft | 490 kts | 70° |
| 2026-05-06 14:34 | 40.20888 | -5.14434 | 35930 ft | 490 kts | 70° |
| 2026-05-06 14:34 | 40.23161 | -5.06108 | 35940 ft | 490 kts | 70° |
| 2026-05-06 14:35 | 40.25450 | -4.97697 | 35937 ft | 490 kts | 70° |
| 2026-05-06 14:35 | 40.27731 | -4.89287 | 35930 ft | 491 kts | 70° |
| 2026-05-06 14:36 | 40.30015 | -4.80838 | 35939 ft | 492 kts | 70° |
| 2026-05-06 14:36 | 40.32290 | -4.72391 | 35942 ft | 492 kts | 70° |
| 2026-05-06 14:37 | 40.34563 | -4.63925 | 35937 ft | 492 kts | 70° |
| 2026-05-06 14:37 | 40.36829 | -4.55458 | 35923 ft | 492 kts | 70° |
| 2026-05-06 14:38 | 40.39092 | -4.46970 | 35955 ft | 494 kts | 70° |
| 2026-05-06 14:38 | 40.41341 | -4.38509 | 35944 ft | 491 kts | 70° |
| 2026-05-06 14:39 | 40.43582 | -4.30046 | 35942 ft | 491 kts | 70° |
| 2026-05-06 14:39 | 40.45817 | -4.21578 | 35936 ft | 491 kts | 70° |
| 2026-05-06 14:40 | 40.48046 | -4.13104 | 35943 ft | 491 kts | 70° |
| 2026-05-06 14:40 | 40.50268 | -4.04628 | 35954 ft | 491 kts | 70° |
| 2026-05-06 14:41 | 40.52485 | -3.96140 | 35955 ft | 491 kts | 71° |
| 2026-05-06 14:41 | 40.54702 | -3.87624 | 35962 ft | 491 kts | 71° |
| 2026-05-06 14:42 | 40.56902 | -3.79144 | 35957 ft | 491 kts | 71° |
| 2026-05-06 14:42 | 40.59107 | -3.70615 | 35942 ft | 493 kts | 71° |
| 2026-05-06 14:43 | 40.61292 | -3.62131 | 35940 ft | 492 kts | 71° |
| 2026-05-06 14:43 | 40.63488 | -3.53579 | 35939 ft | 492 kts | 71° |
| 2026-05-06 14:44 | 40.65671 | -3.45046 | 35939 ft | 493 kts | 71° |
| 2026-05-06 14:45 | 40.68947 | -3.32182 | 35942 ft | 495 kts | 71° |
| 2026-05-06 14:45 | 40.71126 | -3.23585 | 35938 ft | 495 kts | 71° |
| 2026-05-06 14:46 | 40.73295 | -3.15001 | 35944 ft | 495 kts | 71° |
| 2026-05-06 14:46 | 40.75463 | -3.06388 | 35941 ft | 495 kts | 71° |
| 2026-05-06 14:47 | 40.77630 | -2.97749 | 35947 ft | 497 kts | 71° |
| 2026-05-06 14:47 | 40.79793 | -2.89092 | 35945 ft | 497 kts | 71° |
| 2026-05-06 14:48 | 40.81947 | -2.80443 | 35946 ft | 497 kts | 72° |
| 2026-05-06 14:48 | 40.84099 | -2.71769 | 35947 ft | 497 kts | 72° |
| 2026-05-06 14:49 | 40.86232 | -2.63136 | 35944 ft | 498 kts | 72° |
| 2026-05-06 14:49 | 40.88373 | -2.54446 | 35968 ft | 499 kts | 72° |
| 2026-05-06 14:50 | 40.90150 | -2.47207 | 35952 ft | 497 kts | 72° |
| 2026-05-06 14:50 | 40.92276 | -2.38514 | 35954 ft | 497 kts | 72° |
| 2026-05-06 14:51 | 40.94396 | -2.29815 | 35955 ft | 497 kts | 72° |
| 2026-05-06 14:51 | 40.96506 | -2.21121 | 35953 ft | 498 kts | 72° |
| 2026-05-06 14:52 | 40.98620 | -2.12382 | 35951 ft | 499 kts | 72° |
| 2026-05-06 14:52 | 41.00726 | -2.03644 | 35958 ft | 498 kts | 72° |
| 2026-05-06 14:53 | 41.02829 | -1.94885 | 35957 ft | 498 kts | 72° |
| 2026-05-06 14:53 | 41.04920 | -1.86141 | 35954 ft | 499 kts | 72° |
| 2026-05-06 14:54 | 41.07012 | -1.77358 | 35954 ft | 500 kts | 72° |
| 2026-05-06 14:54 | 41.09098 | -1.68571 | 35959 ft | 500 kts | 72° |
| 2026-05-06 14:55 | 41.11173 | -1.59792 | 35962 ft | 500 kts | 72° |
| 2026-05-06 14:55 | 41.13247 | -1.50989 | 35962 ft | 499 kts | 72° |
| 2026-05-06 14:56 | 41.15302 | -1.42228 | 35967 ft | 501 kts | 72° |
| 2026-05-06 14:56 | 41.17366 | -1.33398 | 35966 ft | 501 kts | 72° |
| 2026-05-06 14:57 | 41.19419 | -1.24580 | 35972 ft | 501 kts | 73° |
| 2026-05-06 14:57 | 41.21470 | -1.15733 | 35963 ft | 501 kts | 73° |
| 2026-05-06 14:58 | 41.23519 | -1.06874 | 35961 ft | 502 kts | 73° |
| 2026-05-06 14:58 | 41.25561 | -0.98011 | 35960 ft | 503 kts | 73° |
| 2026-05-06 14:59 | 41.27602 | -0.89118 | 35957 ft | 502 kts | 73° |
| 2026-05-06 14:59 | 41.29634 | -0.80228 | 35958 ft | 502 kts | 73° |
| 2026-05-06 15:00 | 41.31659 | -0.71335 | 35950 ft | 504 kts | 73° |
| 2026-05-06 15:00 | 41.33687 | -0.62398 | 35958 ft | 505 kts | 73° |
| 2026-05-06 15:01 | 41.35325 | -0.53351 | 35931 ft | 501 kts | 90° |
| 2026-05-06 15:01 | 41.35299 | -0.44105 | 35929 ft | 501 kts | 92° |
| 2026-05-06 15:02 | 41.35250 | -0.34841 | 35946 ft | 501 kts | 92° |
| 2026-05-06 15:02 | 41.35175 | -0.25587 | 35938 ft | 500 kts | 92° |
| 2026-05-06 15:03 | 41.35092 | -0.16388 | 35944 ft | 500 kts | 92° |
| 2026-05-06 15:03 | 41.35002 | -0.07125 | 35943 ft | 500 kts | 92° |
| 2026-05-06 15:04 | 41.34903 | 0.02126 | 35932 ft | 501 kts | 93° |
| 2026-05-06 15:04 | 41.34798 | 0.11396 | 35937 ft | 502 kts | 93° |
| 2026-05-06 15:05 | 41.34685 | 0.20692 | 35922 ft | 503 kts | 93° |
| 2026-05-06 15:05 | 41.34563 | 0.30026 | 35930 ft | 504 kts | 93° |
| 2026-05-06 15:06 | 41.34434 | 0.39325 | 35924 ft | 504 kts | 94° |
| 2026-05-06 15:06 | 41.34297 | 0.48657 | 35918 ft | 505 kts | 94° |
| 2026-05-06 15:07 | 41.34153 | 0.58005 | 35924 ft | 505 kts | 94° |
| 2026-05-06 15:07 | 41.34001 | 0.67335 | 35911 ft | 505 kts | 94° |
| 2026-05-06 15:08 | 41.33841 | 0.76680 | 35898 ft | 505 kts | 94° |
| 2026-05-06 15:08 | 41.33674 | 0.86048 | 35915 ft | 507 kts | 94° |
| 2026-05-06 15:09 | 41.33498 | 0.95424 | 35909 ft | 507 kts | 94° |
| 2026-05-06 15:09 | 41.33315 | 1.04792 | 35914 ft | 507 kts | 94° |
| 2026-05-06 15:10 | 41.33125 | 1.14169 | 35912 ft | 507 kts | 94° |
| 2026-05-06 15:10 | 41.32927 | 1.23495 | 35926 ft | 509 kts | 95° |
| 2026-05-06 15:11 | 41.32721 | 1.32880 | 35910 ft | 508 kts | 95° |
| 2026-05-06 15:11 | 41.32507 | 1.42283 | 35917 ft | 508 kts | 95° |
| 2026-05-06 15:12 | 41.32285 | 1.51701 | 35919 ft | 508 kts | 95° |
| 2026-05-06 15:12 | 41.32055 | 1.61097 | 35930 ft | 509 kts | 95° |
| 2026-05-06 15:13 | 41.31818 | 1.70490 | 35931 ft | 509 kts | 95° |
| 2026-05-06 15:13 | 41.31572 | 1.79908 | 35928 ft | 509 kts | 95° |
| 2026-05-06 15:14 | 41.31319 | 1.89309 | 35939 ft | 509 kts | 95° |
| 2026-05-06 15:14 | 41.31058 | 1.98699 | 35936 ft | 508 kts | 96° |
| 2026-05-06 15:15 | 41.30796 | 2.08091 | 35938 ft | 509 kts | 94° |
| 2026-05-06 15:15 | 41.31120 | 2.12793 | 35923 ft | 513 kts | 78° |
| 2026-05-06 15:15 | 41.31947 | 2.17405 | 35941 ft | 515 kts | 79° |
| 2026-05-06 15:16 | 41.33538 | 2.26638 | 35958 ft | 514 kts | 78° |
| 2026-05-06 15:16 | 41.35166 | 2.35868 | 35941 ft | 513 kts | 78° |
| 2026-05-06 15:17 | 41.36797 | 2.45137 | 35940 ft | 514 kts | 78° |
| 2026-05-06 15:17 | 41.38420 | 2.54408 | 35935 ft | 514 kts | 78° |
| 2026-05-06 15:18 | 41.40037 | 2.63692 | 35937 ft | 514 kts | 79° |
| 2026-05-06 15:18 | 41.41641 | 2.72952 | 35925 ft | 515 kts | 79° |
| 2026-05-06 15:19 | 41.43245 | 2.82259 | 35933 ft | 515 kts | 79° |
| 2026-05-06 15:19 | 41.44842 | 2.91570 | 35932 ft | 515 kts | 79° |
| 2026-05-06 15:20 | 41.46419 | 3.00813 | 35931 ft | 515 kts | 79° |
| 2026-05-06 15:20 | 41.47999 | 3.10121 | 35925 ft | 515 kts | 79° |
| 2026-05-06 15:21 | 41.49576 | 3.19465 | 35935 ft | 516 kts | 79° |
| 2026-05-06 15:21 | 41.51142 | 3.28799 | 35939 ft | 516 kts | 79° |
| 2026-05-06 15:22 | 41.52701 | 3.38138 | 35947 ft | 515 kts | 79° |
| 2026-05-06 15:22 | 41.54251 | 3.47472 | 35945 ft | 515 kts | 79° |
| 2026-05-06 15:23 | 41.55795 | 3.56817 | 35945 ft | 515 kts | 79° |
| 2026-05-06 15:23 | 41.57327 | 3.66141 | 35945 ft | 515 kts | 80° |
| 2026-05-06 15:24 | 41.58855 | 3.75491 | 35945 ft | 515 kts | 80° |
| 2026-05-06 15:24 | 41.60377 | 3.84854 | 35932 ft | 515 kts | 80° |
| 2026-05-06 15:25 | 41.61890 | 3.94212 | 35948 ft | 515 kts | 80° |
| 2026-05-06 15:25 | 41.63392 | 4.03553 | 35953 ft | 515 kts | 80° |
| 2026-05-06 15:26 | 41.64879 | 4.12855 | 35955 ft | 515 kts | 80° |
| 2026-05-06 15:26 | 41.66368 | 4.22221 | 35932 ft | 515 kts | 81° |
| 2026-05-06 15:27 | 41.67846 | 4.31565 | 35951 ft | 515 kts | 81° |
| 2026-05-06 15:27 | 41.69320 | 4.40944 | 35984 ft | 515 kts | 81° |
| 2026-05-06 15:28 | 41.70786 | 4.50314 | 35954 ft | 514 kts | 81° |
| 2026-05-06 15:28 | 41.72513 | 4.59599 | 35919 ft | 517 kts | 68° |
| 2026-05-06 15:28 | 41.74269 | 4.63776 | 35942 ft | 517 kts | 52° |
| 2026-05-06 15:29 | 41.76666 | 4.67346 | 35948 ft | 517 kts | 38° |
| 2026-05-06 15:29 | 41.79597 | 4.70060 | 35926 ft | 508 kts | 22° |
| 2026-05-06 15:29 | 41.82807 | 4.72010 | 35957 ft | 509 kts | 21° |
| 2026-05-06 15:29 | 41.85839 | 4.74515 | 35899 ft | 515 kts | 39° |
| 2026-05-06 15:30 | 41.88234 | 4.78003 | 35971 ft | 516 kts | 51° |
| 2026-05-06 15:30 | 41.93094 | 4.85127 | 36006 ft | 519 kts | 44° |
| 2026-05-06 15:31 | 41.98150 | 4.92066 | 35940 ft | 519 kts | 44° |
| 2026-05-06 15:31 | 42.03208 | 4.99003 | 35937 ft | 520 kts | 44° |
| 2026-05-06 15:32 | 42.10784 | 5.09424 | 35966 ft | 520 kts | 44° |
| 2026-05-06 15:32 | 42.15840 | 5.16397 | 35948 ft | 520 kts | 44° |
| 2026-05-06 15:33 | 42.20897 | 5.23390 | 35944 ft | 520 kts | 44° |
| 2026-05-06 15:33 | 42.25948 | 5.30393 | 35941 ft | 520 kts | 44° |
| 2026-05-06 15:34 | 42.30139 | 5.36215 | 35941 ft | 520 kts | 45° |
| 2026-05-06 15:34 | 42.35177 | 5.43231 | 35935 ft | 521 kts | 45° |
| 2026-05-06 15:35 | 42.40223 | 5.50274 | 35934 ft | 521 kts | 45° |
| 2026-05-06 15:35 | 42.45241 | 5.57296 | 35933 ft | 521 kts | 45° |
| 2026-05-06 15:36 | 42.50277 | 5.64361 | 35941 ft | 520 kts | 45° |
| 2026-05-06 15:36 | 42.55289 | 5.71408 | 35903 ft | 519 kts | 45° |
| 2026-05-06 15:37 | 42.60304 | 5.78480 | 35925 ft | 521 kts | 45° |
| 2026-05-06 15:37 | 42.65317 | 5.85563 | 35925 ft | 520 kts | 45° |
| 2026-05-06 15:38 | 42.70330 | 5.92666 | 35925 ft | 520 kts | 45° |
| 2026-05-06 15:38 | 42.75332 | 5.99769 | 35919 ft | 520 kts | 45° |
| 2026-05-06 15:39 | 42.80297 | 6.06839 | 35920 ft | 520 kts | 45° |
| 2026-05-06 15:39 | 42.85296 | 6.13975 | 35912 ft | 520 kts | 45° |
| 2026-05-06 15:40 | 42.90286 | 6.21115 | 35909 ft | 520 kts | 45° |
| 2026-05-06 15:40 | 42.95269 | 6.28263 | 35910 ft | 520 kts | 45° |
| 2026-05-06 15:41 | 43.00243 | 6.35417 | 35910 ft | 520 kts | 46° |
| 2026-05-06 15:41 | 43.05224 | 6.42598 | 35925 ft | 520 kts | 46° |
| 2026-05-06 15:42 | 43.10197 | 6.49787 | 35885 ft | 520 kts | 46° |
| 2026-05-06 15:42 | 43.15158 | 6.56974 | 35889 ft | 520 kts | 46° |
| 2026-05-06 15:43 | 43.20130 | 6.64198 | 35881 ft | 520 kts | 46° |
| 2026-05-06 15:43 | 43.25096 | 6.71430 | 35879 ft | 520 kts | 46° |
| 2026-05-06 15:44 | 43.30038 | 6.78648 | 35855 ft | 520 kts | 46° |
| 2026-05-06 15:44 | 43.34994 | 6.85903 | 35813 ft | 520 kts | 46° |
| 2026-05-06 15:45 | 43.39555 | 6.93602 | 35849 ft | 520 kts | 54° |
| 2026-05-06 15:45 | 43.43795 | 7.01663 | 35850 ft | 520 kts | 55° |
| 2026-05-06 15:46 | 43.48015 | 7.09740 | 35834 ft | 521 kts | 55° |
| 2026-05-06 15:46 | 43.52212 | 7.17797 | 35831 ft | 521 kts | 55° |
| 2026-05-06 15:47 | 43.56433 | 7.25923 | 35833 ft | 521 kts | 55° |
| 2026-05-06 15:47 | 43.60637 | 7.34040 | 35853 ft | 521 kts | 55° |
| 2026-05-06 15:48 | 43.64845 | 7.42185 | 35827 ft | 520 kts | 55° |
| 2026-05-06 15:48 | 43.69040 | 7.50329 | 35826 ft | 520 kts | 55° |
| 2026-05-06 15:49 | 43.73229 | 7.58484 | 35814 ft | 520 kts | 55° |
| 2026-05-06 15:49 | 43.77404 | 7.66636 | 35827 ft | 519 kts | 56° |
| 2026-05-06 15:50 | 43.81554 | 7.74799 | 35823 ft | 517 kts | 58° |
| 2026-05-06 15:50 | 43.85464 | 7.83175 | 35829 ft | 518 kts | 58° |
| 2026-05-06 15:51 | 43.89384 | 7.91526 | 35822 ft | 517 kts | 58° |
| 2026-05-06 15:51 | 43.93298 | 7.99879 | 35816 ft | 517 kts | 58° |
| 2026-05-06 15:52 | 43.97218 | 8.08268 | 35818 ft | 518 kts | 58° |
| 2026-05-06 15:52 | 44.01134 | 8.16675 | 35837 ft | 519 kts | 56° |
| 2026-05-06 15:53 | 44.05038 | 8.25084 | 35832 ft | 518 kts | 58° |
| 2026-05-06 15:53 | 44.08921 | 8.33468 | 35825 ft | 519 kts | 59° |
| 2026-05-06 15:54 | 44.11941 | 8.42434 | 35845 ft | 509 kts | 84° |
| 2026-05-06 15:54 | 44.12860 | 8.52152 | 35840 ft | 510 kts | 84° |
| 2026-05-06 15:55 | 44.14289 | 8.61855 | 35835 ft | 512 kts | 82° |
| 2026-05-06 15:55 | 44.15815 | 8.71545 | 35847 ft | 512 kts | 82° |
| 2026-05-06 15:56 | 44.17353 | 8.81234 | 35861 ft | 512 kts | 81° |
| 2026-05-06 15:56 | 44.18881 | 8.90908 | 35858 ft | 512 kts | 81° |
| 2026-05-06 15:57 | 44.20405 | 9.00608 | 35865 ft | 512 kts | 82° |
| 2026-05-06 15:57 | 44.21921 | 9.10306 | 35824 ft | 512 kts | 81° |
| 2026-05-06 15:58 | 44.23431 | 9.19922 | 35866 ft | 507 kts | 82° |
| 2026-05-06 15:58 | 44.24896 | 9.29538 | 35888 ft | 507 kts | 82° |
| 2026-05-06 15:59 | 44.26370 | 9.39156 | 35890 ft | 506 kts | 82° |
| 2026-05-06 15:59 | 44.27845 | 9.48770 | 35871 ft | 506 kts | 82° |
| 2026-05-06 16:00 | 44.29289 | 9.58350 | 35884 ft | 505 kts | 82° |
| 2026-05-06 16:00 | 44.30735 | 9.67936 | 35892 ft | 504 kts | 82° |
| 2026-05-06 16:01 | 44.32167 | 9.77526 | 35894 ft | 505 kts | 82° |
| 2026-05-06 16:01 | 44.33618 | 9.87121 | 35894 ft | 504 kts | 82° |
| 2026-05-06 16:02 | 44.35006 | 9.96643 | 35893 ft | 505 kts | 83° |
| 2026-05-06 16:02 | 44.36415 | 10.06246 | 35918 ft | 504 kts | 83° |
| 2026-05-06 16:03 | 44.37817 | 10.15844 | 35894 ft | 505 kts | 83° |
| 2026-05-06 16:03 | 44.38517 | 10.20655 | 35711 ft | 504 kts | 83° |
| 2026-05-06 16:03 | 44.39211 | 10.25448 | 35454 ft | 505 kts | 83° |
| 2026-05-06 16:04 | 44.39929 | 10.30255 | 35170 ft | 507 kts | 82° |
| 2026-05-06 16:04 | 44.40661 | 10.35077 | 34894 ft | 507 kts | 83° |
| 2026-05-06 16:04 | 44.41370 | 10.39912 | 34641 ft | 507 kts | 83° |
| 2026-05-06 16:04 | 44.42062 | 10.44748 | 34381 ft | 507 kts | 83° |
| 2026-05-06 16:05 | 44.42747 | 10.49575 | 34004 ft | 503 kts | 84° |
| 2026-05-06 16:05 | 44.43428 | 10.54389 | 33133 ft | 505 kts | 84° |
| 2026-05-06 16:05 | 44.44106 | 10.59202 | 32256 ft | 507 kts | 84° |
| 2026-05-06 16:05 | 44.44788 | 10.64051 | 31387 ft | 509 kts | 83° |
| 2026-05-06 16:06 | 44.45471 | 10.68930 | 30497 ft | 512 kts | 83° |
| 2026-05-06 16:06 | 44.46154 | 10.73829 | 29559 ft | 514 kts | 83° |
| 2026-05-06 16:06 | 44.46841 | 10.78752 | 28560 ft | 516 kts | 83° |
| 2026-05-06 16:06 | 44.47525 | 10.83688 | 27583 ft | 516 kts | 83° |
| 2026-05-06 16:07 | 44.48205 | 10.88623 | 26675 ft | 516 kts | 83° |
| 2026-05-06 16:07 | 44.48883 | 10.93537 | 25717 ft | 517 kts | 83° |
| 2026-05-06 16:07 | 44.49561 | 10.98478 | 24862 ft | 515 kts | 83° |
| 2026-05-06 16:07 | 44.50226 | 11.03350 | 24416 ft | 504 kts | 83° |
| 2026-05-06 16:08 | 44.50876 | 11.08121 | 23954 ft | 494 kts | 82° |
| 2026-05-06 16:08 | 44.51513 | 11.12811 | 23514 ft | 485 kts | 82° |
| 2026-05-06 16:08 | 44.52244 | 11.17377 | 23035 ft | 479 kts | 73° |
| 2026-05-06 16:08 | 44.53810 | 11.21440 | 22602 ft | 473 kts | 51° |
| 2026-05-06 16:09 | 44.56170 | 11.24542 | 22228 ft | 462 kts | 34° |
| 2026-05-06 16:09 | 44.58761 | 11.27206 | 21509 ft | 461 kts | 39° |
| 2026-05-06 16:09 | 44.61162 | 11.30054 | 21001 ft | 455 kts | 38° |
| 2026-05-06 16:09 | 44.63609 | 11.32876 | 20416 ft | 453 kts | 38° |
| 2026-05-06 16:10 | 44.66047 | 11.35651 | 19836 ft | 451 kts | 38° |
| 2026-05-06 16:10 | 44.68483 | 11.38406 | 19339 ft | 447 kts | 38° |
| 2026-05-06 16:10 | 44.70901 | 11.41133 | 18838 ft | 443 kts | 38° |
| 2026-05-06 16:10 | 44.73292 | 11.43832 | 18340 ft | 439 kts | 37° |
| 2026-05-06 16:11 | 44.75647 | 11.46491 | 17879 ft | 434 kts | 38° |
| 2026-05-06 16:11 | 44.77999 | 11.49152 | 17321 ft | 431 kts | 38° |
| 2026-05-06 16:11 | 44.80320 | 11.51777 | 16842 ft | 427 kts | 38° |
| 2026-05-06 16:11 | 44.82626 | 11.54390 | 16301 ft | 424 kts | 38° |
| 2026-05-06 16:12 | 44.84919 | 11.56992 | 15821 ft | 421 kts | 38° |
| 2026-05-06 16:12 | 44.87187 | 11.59567 | 15347 ft | 417 kts | 38° |
| 2026-05-06 16:12 | 44.89443 | 11.62131 | 14875 ft | 414 kts | 38° |
| 2026-05-06 16:12 | 44.91674 | 11.64669 | 14402 ft | 411 kts | 39° |
| 2026-05-06 16:13 | 44.93887 | 11.67191 | 13956 ft | 407 kts | 39° |
| 2026-05-06 16:13 | 44.96074 | 11.69685 | 13498 ft | 404 kts | 39° |
| 2026-05-06 16:13 | 44.98233 | 11.72145 | 13039 ft | 393 kts | 39° |
| 2026-05-06 16:13 | 45.00304 | 11.74509 | 12504 ft | 383 kts | 39° |
| 2026-05-06 16:14 | 45.02353 | 11.76849 | 11984 ft | 373 kts | 39° |
| 2026-05-06 16:14 | 45.04349 | 11.79132 | 11538 ft | 363 kts | 39° |
| 2026-05-06 16:14 | 45.06283 | 11.81346 | 11127 ft | 354 kts | 39° |
| 2026-05-06 16:14 | 45.08170 | 11.83509 | 10743 ft | 344 kts | 39° |
| 2026-05-06 16:15 | 45.10000 | 11.85609 | 10398 ft | 334 kts | 39° |
| 2026-05-06 16:15 | 45.11780 | 11.87654 | 10115 ft | 324 kts | 39° |
| 2026-05-06 16:15 | 45.13513 | 11.89647 | 9875 ft | 318 kts | 39° |
| 2026-05-06 16:15 | 45.15213 | 11.91605 | 9565 ft | 316 kts | 38° |
| 2026-05-06 16:16 | 45.16908 | 11.93559 | 9278 ft | 312 kts | 38° |
| 2026-05-06 16:16 | 45.18586 | 11.95496 | 8933 ft | 311 kts | 38° |
| 2026-05-06 16:16 | 45.20238 | 11.97405 | 8630 ft | 308 kts | 38° |
| 2026-05-06 16:16 | 45.21902 | 11.99329 | 8239 ft | 310 kts | 38° |
| 2026-05-06 16:17 | 45.23580 | 12.01271 | 7831 ft | 312 kts | 38° |
| 2026-05-06 16:17 | 45.24718 | 12.02589 | 7563 ft | 313 kts | 38° |
| 2026-05-06 16:17 | 45.26406 | 12.04545 | 7144 ft | 312 kts | 38° |
| 2026-05-06 16:17 | 45.28064 | 12.06502 | 6755 ft | 307 kts | 41° |
| 2026-05-06 16:18 | 45.29641 | 12.08507 | 6362 ft | 301 kts | 41° |
| 2026-05-06 16:18 | 45.31182 | 12.10462 | 5949 ft | 293 kts | 41° |
| 2026-05-06 16:18 | 45.32663 | 12.12332 | 5612 ft | 284 kts | 41° |
| 2026-05-06 16:18 | 45.34107 | 12.14147 | 5311 ft | 273 kts | 41° |
| 2026-05-06 16:19 | 45.35496 | 12.15918 | 5038 ft | 263 kts | 41° |
| 2026-05-06 16:19 | 45.36829 | 12.17623 | 4772 ft | 253 kts | 41° |
| 2026-05-06 16:19 | 45.38110 | 12.19261 | 4556 ft | 241 kts | 41° |
| 2026-05-06 16:19 | 45.39327 | 12.20823 | 4341 ft | 233 kts | 41° |
| 2026-05-06 16:20 | 45.40522 | 12.22354 | 4175 ft | 227 kts | 41° |
| 2026-05-06 16:20 | 45.41671 | 12.23825 | 4094 ft | 217 kts | 41° |
| 2026-05-06 16:20 | 45.42769 | 12.25236 | 4006 ft | 207 kts | 41° |
| 2026-05-06 16:20 | 45.43820 | 12.26583 | 3898 ft | 203 kts | 42° |
| 2026-05-06 16:21 | 45.44875 | 12.27936 | 3881 ft | 204 kts | 42° |
| 2026-05-06 16:21 | 45.45933 | 12.29294 | 3865 ft | 209 kts | 41° |
| 2026-05-06 16:21 | 45.47064 | 12.30708 | 4434 ft | 216 kts | 40° |
| 2026-05-06 16:21 | 45.48237 | 12.32216 | 4908 ft | 240 kts | 41° |
| 2026-05-06 16:22 | 45.49506 | 12.33868 | 4871 ft | 251 kts | 41° |
| 2026-05-06 16:22 | 45.50806 | 12.35550 | 4877 ft | 253 kts | 41° |
| 2026-05-06 16:22 | 45.51931 | 12.37435 | 4864 ft | 251 kts | 65° |
| 2026-05-06 16:22 | 45.52307 | 12.39818 | 4869 ft | 247 kts | 96° |
| 2026-05-06 16:23 | 45.51820 | 12.42104 | 4871 ft | 240 kts | 127° |
| 2026-05-06 16:23 | 45.50626 | 12.43668 | 4872 ft | 233 kts | 158° |
| 2026-05-06 16:23 | 45.49083 | 12.44102 | 4871 ft | 226 kts | 189° |
| 2026-05-06 16:23 | 45.47640 | 12.43332 | 4884 ft | 223 kts | 215° |
| 2026-05-06 16:24 | 45.46397 | 12.42017 | 4900 ft | 221 kts | 219° |
| 2026-05-06 16:24 | 45.45188 | 12.40667 | 4617 ft | 222 kts | 219° |
| 2026-05-06 16:24 | 45.43971 | 12.39307 | 4318 ft | 222 kts | 219° |
| 2026-05-06 16:24 | 45.42761 | 12.37944 | 4052 ft | 221 kts | 219° |
| 2026-05-06 16:25 | 45.41559 | 12.36577 | 3701 ft | 223 kts | 219° |
| 2026-05-06 16:25 | 45.40351 | 12.35182 | 3404 ft | 223 kts | 219° |
| 2026-05-06 16:25 | 45.39159 | 12.33787 | 3185 ft | 221 kts | 219° |
| 2026-05-06 16:25 | 45.37987 | 12.32407 | 3036 ft | 214 kts | 219° |
| 2026-05-06 16:26 | 45.36893 | 12.31087 | 2956 ft | 204 kts | 224° |
| 2026-05-06 16:26 | 45.36216 | 12.29357 | 2731 ft | 205 kts | 257° |
| 2026-05-06 16:26 | 45.36211 | 12.27301 | 2389 ft | 211 kts | 273° |
| 2026-05-06 16:26 | 45.36393 | 12.25224 | 2128 ft | 210 kts | 274° |
| 2026-05-06 16:27 | 45.36569 | 12.23187 | 2008 ft | 207 kts | 273° |
| 2026-05-06 16:27 | 45.36826 | 12.21166 | 1963 ft | 209 kts | 290° |
| 2026-05-06 16:27 | 45.37710 | 12.19541 | 1964 ft | 212 kts | 323° |
| 2026-05-06 16:27 | 45.39085 | 12.18795 | 1965 ft | 212 kts | 355° |
| 2026-05-06 16:28 | 45.40475 | 12.19158 | 1925 ft | 200 kts | 30° |
| 2026-05-06 16:28 | 45.41442 | 12.20469 | 1909 ft | 190 kts | 64° |
| 2026-05-06 16:28 | 45.42005 | 12.22116 | 2041 ft | 177 kts | 65° |
| 2026-05-06 16:28 | 45.42547 | 12.23673 | 1915 ft | 174 kts | 65° |
| 2026-05-06 16:29 | 45.43132 | 12.25167 | 1744 ft | 170 kts | 66° |
| 2026-05-06 16:29 | 45.43795 | 12.26561 | 1533 ft | 169 kts | 49° |
| 2026-05-06 16:29 | 45.44633 | 12.27661 | 1299 ft | 160 kts | 42° |
| 2026-05-06 16:29 | 45.45464 | 12.28685 | 1110 ft | 156 kts | 45° |
| 2026-05-06 16:30 | 45.46265 | 12.29721 | 908 ft | 156 kts | 45° |
| 2026-05-06 16:30 | 45.46796 | 12.30407 | 750 ft | 155 kts | 44° |
| 2026-05-06 16:30 | 45.47863 | 12.31774 | 491 ft | 154 kts | 44° |
| 2026-05-06 16:30 | 45.48658 | 12.32790 | 275 ft | 152 kts | 45° |
| 2026-05-06 16:31 | 45.49429 | 12.33787 | 88 ft | 149 kts | 45° |
| 2026-05-06 16:31 | 45.50146 | 12.34718 | 20 ft | 119 kts | 41° |
| 2026-05-06 16:31 | 45.50585 | 12.35279 | 16 ft | 59 kts | 39° |
| 2026-05-06 16:31 | 45.50778 | 12.35417 | 18 ft | 20 kts | 14° |
| 2026-05-06 16:32 | 45.50881 | 12.35449 | 18 ft | 14 kts | 12° |
| 2026-05-06 16:32 | 45.50912 | 12.35458 | 19 ft | 0 kts | 10° |
| 2026-05-06 16:32 | 45.50916 | 12.35459 | 19 ft | 0 kts | 9° |
| 2026-05-06 16:32 | 45.50922 | 12.35460 | 19 ft | 2 kts | 4° |
| 2026-05-06 16:33 | 45.50953 | 12.35450 | 19 ft | 8 kts | 334° |
| 2026-05-06 16:33 | 45.50981 | 12.35374 | 20 ft | 11 kts | 266° |
| 2026-05-06 16:33 | 45.50964 | 12.35250 | 21 ft | 15 kts | 255° |
| 2026-05-06 16:34 | 45.50850 | 12.35067 | 18 ft | 10 kts | 222° |
| 2026-05-06 16:34 | 45.50787 | 12.34987 | 18 ft | 14 kts | 222° |
| 2026-05-06 16:34 | 45.50715 | 12.34894 | 19 ft | 11 kts | 222° |
| 2026-05-06 16:34 | 45.50656 | 12.34818 | 18 ft | 8 kts | 222° |
| 2026-05-06 16:35 | 45.50614 | 12.34751 | 18 ft | 8 kts | 244° |
| 2026-05-06 16:35 | 45.50605 | 12.34657 | 18 ft | 10 kts | 267° |
| 2026-05-06 16:35 | 45.50601 | 12.34542 | 18 ft | 12 kts | 267° |
| 2026-05-06 16:35 | 45.50598 | 12.34449 | 18 ft | 8 kts | 270° |
| 2026-05-06 16:36 | 45.50620 | 12.34374 | 18 ft | 5 kts | 309° |
| 2026-05-06 16:36 | 45.50628 | 12.34354 | 19 ft | 0 kts | 272° |
| 2026-05-06 16:36 | 45.50624 | 12.34338 | 18 ft | 4 kts | 248° |
| 2026-05-06 16:36 | 45.50618 | 12.34280 | 18 ft | 7 kts | 265° |
| 2026-05-06 16:37 | 45.50616 | 12.34235 | 18 ft | 3 kts | 268° |
| 2026-05-06 16:37 | 45.50616 | 12.34224 | 18 ft | 0 kts | 268° |
| 2026-05-06 16:37 | 45.50616 | 12.34221 | 18 ft | 0 kts | 268° |